Time;durP1;ratioP1;P1;durP2;ratioP2;P2;SDS_P1;SDS_P2;PMS_P1;PMS_P2;Temp;Humidity;BMP_temperature;BMP_pressure;BME280_temperature;BME280_humidity;BME280_pressure;Samples;Min_cycle;Max_cycle;Signal;HPM_P1;HPM_P2
2021/11/15 00:01:41;;;;;;;26.95;14.98;;;10.30;96.30;;;8.72;98.37;101553.13;5027593;28;20121;-86
2021/11/15 00:04:10;;;;;;;25.17;14.18;;;10.30;96.60;;;8.65;98.33;101552.03;5027722;28;20045;-86
2021/11/15 00:06:38;;;;;;;24.73;14.02;;;10.20;96.70;;;8.65;98.27;101546.59;5044107;28;20103;-86
2021/11/15 00:09:06;;;;;;;24.88;14.52;;;10.20;96.80;;;8.65;98.29;101547.44;5028231;28;20048;-86
2021/11/15 00:11:34;;;;;;;24.30;14.13;;;10.20;96.80;;;8.64;98.72;101545.72;5027508;28;20592;-86
2021/11/15 00:14:01;;;;;;;25.42;14.80;;;10.30;96.90;;;8.63;98.43;101545.91;5027374;28;20085;-86
2021/11/15 00:16:29;;;;;;;25.98;15.02;;;10.30;96.50;;;8.64;98.58;101551.16;5024137;28;20046;-86
2021/11/15 00:18:56;;;;;;;23.38;14.05;;;10.30;96.60;;;8.68;98.85;101551.72;5023268;28;20046;-86
2021/11/15 00:21:26;;;;;;;23.40;14.20;;;10.20;96.80;;;8.66;98.68;101548.28;5007605;28;20309;-86
2021/11/15 00:23:54;;;;;;;23.00;14.35;;;10.30;96.50;;;8.66;98.60;101537.44;5009056;28;20092;-86
2021/11/15 00:26:22;;;;;;;22.55;14.07;;;10.30;96.80;;;8.59;98.57;101553.47;5009022;28;20052;-86
2021/11/15 00:28:49;;;;;;;22.95;13.98;;;10.20;96.50;;;8.60;98.53;101550.63;5030234;28;20056;-86
2021/11/15 00:31:18;;;;;;;23.92;14.77;;;10.20;96.90;;;8.54;99.01;101540.31;5026862;28;20128;-86
2021/11/15 00:33:46;;;;;;;22.13;13.63;;;10.20;96.60;;;8.52;98.48;101539.63;5023823;28;20502;-86
2021/11/15 00:36:13;;;;;;;24.17;13.95;;;10.10;96.70;;;8.50;98.47;101538.06;5007531;28;20482;-86
2021/11/15 00:38:42;;;;;;;23.17;14.43;;;10.00;96.90;;;8.53;98.74;101540.47;5006640;28;20041;-86
2021/11/15 00:41:10;;;;;;;22.65;14.32;;;10.00;97.30;;;8.49;99.10;101542.63;5007408;28;20045;-86
2021/11/15 00:43:37;;;;;;;25.27;14.38;;;10.00;97.30;;;8.47;99.58;101544.63;5023788;28;20574;-86
2021/11/15 00:46:06;;;;;;;23.33;14.65;;;10.10;97.60;;;8.48;99.31;101554.47;5007399;28;20044;-86
2021/11/15 00:48:33;;;;;;;22.77;14.48;;;10.10;97.40;;;8.50;99.25;101548.91;5023047;28;20073;-86
2021/11/15 00:51:00;;;;;;;24.67;14.68;;;10.10;97.20;;;8.51;99.49;101548.78;5008832;28;20037;-87
2021/11/15 00:53:28;;;;;;;26.30;14.07;;;10.10;97.20;;;8.48;98.80;101556.34;5008655;28;20042;-86
2021/11/15 00:55:57;;;;;;;23.98;14.65;;;10.20;97.00;;;8.46;98.97;101556.47;5007243;28;20132;-86
2021/11/15 00:58:24;;;;;;;22.90;14.32;;;10.10;97.10;;;8.46;99.05;101556.47;5007963;28;20334;-87
2021/11/15 01:00:52;;;;;;;22.95;13.57;;;10.20;97.00;;;8.43;99.35;101559.47;5007245;28;20514;-86
2021/11/15 01:03:19;;;;;;;23.38;13.02;;;10.20;96.70;;;8.44;99.57;101549.50;5007181;28;20038;-86
2021/11/15 01:05:48;;;;;;;22.73;13.98;;;10.20;96.60;;;8.46;99.40;101551.06;5007264;28;20511;-86
2021/11/15 01:08:18;;;;;;;23.27;13.98;;;10.20;96.80;;;8.49;99.52;101553.50;5007634;28;20042;-86
2021/11/15 01:10:47;;;;;;;24.70;14.25;;;10.20;96.90;;;8.46;99.66;101553.78;5042656;28;20050;-87
2021/11/15 01:13:16;;;;;;;21.17;14.18;;;10.20;96.90;;;8.48;100.00;101553.63;5043305;28;20049;-86
2021/11/15 01:15:44;;;;;;;23.08;14.35;;;10.20;97.10;;;8.45;100.00;101543.91;5043240;28;20564;-85
2021/11/15 01:18:11;;;;;;;24.10;14.38;;;10.30;97.00;;;8.45;99.47;101543.91;5028326;28;20651;-86
2021/11/15 01:20:39;;;;;;;24.02;14.35;;;10.30;96.80;;;8.46;99.34;101542.91;5026750;28;20052;-85
2021/11/15 01:23:07;;;;;;;24.40;14.07;;;10.30;96.70;;;8.47;99.29;101532.91;5043453;28;20123;-87
2021/11/15 01:25:37;;;;;;;23.80;14.48;;;10.20;96.40;;;8.47;99.25;101531.06;5043404;28;20057;-87
2021/11/15 01:28:06;;;;;;;22.55;14.05;;;10.20;96.40;;;8.48;98.81;101531.94;5027554;28;20044;-87
2021/11/15 01:30:36;;;;;;;24.85;14.25;;;10.20;96.50;;;8.45;98.90;101524.91;5043295;28;20065;-86
2021/11/15 01:33:04;;;;;;;25.77;13.60;;;10.20;96.70;;;8.46;99.07;101528.50;5043114;28;20160;-86
2021/11/15 01:35:32;;;;;;;26.85;14.73;;;10.20;96.60;;;8.43;98.81;101532.34;5043344;28;20045;-86
2021/11/15 01:38:00;;;;;;;24.70;15.10;;;10.10;96.50;;;8.42;99.29;101527.94;5027167;28;20061;-86
2021/11/15 01:40:31;;;;;;;24.40;14.15;;;10.10;96.80;;;8.40;99.22;101527.19;5027059;28;20076;-87
2021/11/15 01:42:59;;;;;;;24.90;14.93;;;10.10;96.90;;;8.34;99.22;101522.34;5030264;28;20425;-86
2021/11/15 01:45:30;;;;;;;27.25;15.13;;;10.10;96.80;;;8.32;98.92;101535.19;5046838;28;20061;-86
2021/11/15 01:48:01;;;;;;;25.45;14.88;;;10.00;96.90;;;8.30;99.40;101526.34;5045982;28;20152;-86
2021/11/15 01:50:31;;;;;;;27.00;15.23;;;9.90;97.10;;;8.26;99.41;101533.06;5030246;28;20704;-87
2021/11/15 01:52:59;;;;;;;25.40;14.90;;;9.80;97.40;;;8.27;99.42;101527.50;5029942;28;20069;-86
2021/11/15 01:55:27;;;;;;;24.38;15.25;;;9.80;97.80;;;8.23;99.18;101529.63;5046719;28;20486;-86
2021/11/15 01:57:57;;;;;;;23.55;14.40;;;9.90;97.70;;;8.27;99.57;101529.34;5029032;28;20544;-86
2021/11/15 02:00:29;;;;;;;28.17;15.18;;;9.90;97.60;;;8.27;99.79;101521.22;5031273;28;20037;-86
2021/11/15 02:02:58;;;;;;;24.85;14.35;;;9.90;97.80;;;8.30;99.40;101524.50;5046414;28;20462;-86
2021/11/15 02:05:25;;;;;;;24.50;14.77;;;9.90;97.50;;;8.26;100.00;101525.78;5029802;28;20053;-86
2021/11/15 02:07:53;;;;;;;24.30;14.52;;;10.00;97.70;;;8.25;100.00;101531.38;5045611;28;20156;-85
2021/11/15 02:10:21;;;;;;;31.73;15.45;;;9.90;97.30;;;8.23;100.00;101521.50;5030593;28;20121;-86
2021/11/15 02:12:48;;;;;;;39.13;15.70;;;9.90;97.40;;;8.22;99.84;101525.22;5009860;28;20046;-86
2021/11/15 02:15:16;;;;;;;26.27;15.43;;;10.00;97.30;;;8.20;99.63;101527.19;5011436;28;20037;-86
2021/11/15 02:17:47;;;;;;;25.95;15.10;;;9.90;97.40;;;8.20;99.71;101531.78;5041026;28;20135;-86
2021/11/15 02:20:17;;;;;;;25.02;14.63;;;9.90;97.20;;;8.19;99.90;101517.38;5046495;28;20045;-86
2021/11/15 02:22:46;;;;;;;28.17;15.50;;;9.90;97.60;;;8.19;100.00;101520.09;5030294;28;20077;-86
2021/11/15 02:25:16;;;;;;;28.80;15.93;;;10.00;97.30;;;8.19;100.00;101517.38;5029463;28;20074;-86
2021/11/15 02:27:44;;;;;;;31.77;16.40;;;10.00;97.40;;;8.19;100.00;101520.09;5028449;28;20056;-86
2021/11/15 02:30:15;;;;;;;29.02;15.52;;;9.90;97.20;;;8.16;100.00;101514.09;5029571;28;20143;-86
2021/11/15 02:32:43;;;;;;;26.90;16.25;;;10.00;97.50;;;8.13;100.00;101515.25;5029407;28;20136;-86
2021/11/15 02:35:12;;;;;;;30.27;17.40;;;9.80;97.30;;;8.15;100.00;101507.81;5029596;28;20050;-86
2021/11/15 02:37:42;;;;;;;28.38;16.52;;;9.80;97.80;;;8.13;100.00;101506.22;5028226;28;20044;-86
2021/11/15 02:40:13;;;;;;;29.52;15.75;;;9.80;97.90;;;8.12;100.00;101518.94;5029210;28;20064;-85
2021/11/15 02:42:41;;;;;;;33.15;17.88;;;9.70;98.00;;;8.06;100.00;101511.38;5045825;28;20068;-86
2021/11/15 02:45:11;;;;;;;31.05;16.48;;;9.60;98.20;;;8.10;100.00;101510.09;5029112;28;20048;-86
2021/11/15 02:47:38;;;;;;;34.47;18.23;;;9.60;98.40;;;8.08;100.00;101512.09;5028330;28;20049;-86
2021/11/15 02:50:08;;;;;;;29.90;16.67;;;9.60;98.30;;;8.00;100.00;101506.56;5029067;28;20144;-86
2021/11/15 02:52:35;;;;;;;31.20;17.13;;;9.60;98.30;;;8.02;100.00;101501.84;5028507;28;20164;-86
2021/11/15 02:55:06;;;;;;;29.98;16.67;;;9.60;98.50;;;8.01;100.00;101505.53;5028903;28;20081;-87
2021/11/15 02:57:33;;;;;;;29.65;16.42;;;9.70;98.50;;;8.03;100.00;101498.13;5028104;28;20130;-86
2021/11/15 03:00:00;;;;;;;28.58;16.02;;;9.70;98.50;;;8.06;100.00;101502.41;5028690;28;20243;-85
2021/11/15 03:02:29;;;;;;;31.70;17.42;;;9.70;98.30;;;8.10;100.00;101499.25;5045420;28;20136;-86
2021/11/15 03:04:56;;;;;;;32.58;17.83;;;9.60;98.60;;;8.11;100.00;101500.97;5028610;28;20128;-86
2021/11/15 03:07:24;;;;;;;28.52;16.13;;;9.60;98.40;;;8.07;100.00;101501.41;5028095;28;20048;-86
2021/11/15 03:09:51;;;;;;;31.23;16.00;;;9.70;98.60;;;8.09;100.00;101502.09;5028324;28;20470;-86
2021/11/15 03:12:20;;;;;;;30.77;16.27;;;9.70;98.80;;;8.08;100.00;101501.25;5025307;28;20143;-86
2021/11/15 03:14:47;;;;;;;30.88;17.33;;;9.70;98.40;;;8.07;100.00;101504.09;5011435;28;20567;-86
2021/11/15 03:17:19;;;;;;;30.40;17.67;;;9.70;98.20;;;8.05;100.00;101496.09;5034745;22;20137;31
2021/11/15 03:19:46;;;;;;;29.13;17.02;;;9.70;98.40;;;8.07;100.00;101496.81;5027147;28;20049;-83
2021/11/15 03:22:13;;;;;;;32.05;17.40;;;9.70;98.50;;;8.10;100.00;101492.97;5044987;28;20144;-83
2021/11/15 03:24:41;;;;;;;32.67;18.17;;;9.70;98.20;;;8.07;100.00;101491.41;5029683;28;20076;-83
2021/11/15 03:27:09;;;;;;;34.25;17.20;;;9.70;98.10;;;8.03;100.00;101498.13;5029554;28;20049;-83
2021/11/15 03:29:37;;;;;;;33.42;18.02;;;9.80;98.20;;;8.03;100.00;101495.41;5028830;28;20055;-83
2021/11/15 03:32:06;;;;;;;30.08;17.85;;;9.70;97.90;;;8.01;100.00;101491.97;5029570;28;20148;-84
2021/11/15 03:34:34;;;;;;;35.28;18.85;;;9.70;98.00;;;8.00;100.00;101499.25;5027886;28;20041;-83
2021/11/15 03:37:02;;;;;;;31.05;17.25;;;9.70;98.00;;;8.04;100.00;101494.41;5029432;28;20133;-83
2021/11/15 03:39:29;;;;;;;27.85;16.80;;;9.70;98.40;;;8.03;100.00;101498.13;5028521;28;20460;-83
2021/11/15 03:41:56;;;;;;;30.33;17.90;;;9.70;98.30;;;8.04;100.00;101494.41;5029440;28;20049;-83
2021/11/15 03:44:24;;;;;;;32.53;17.88;;;9.70;98.40;;;8.04;100.00;101497.13;5027752;28;20140;-83
2021/11/15 03:46:52;;;;;;;33.20;17.88;;;9.70;98.50;;;8.02;100.00;101491.00;5029234;28;20103;-83
2021/11/15 03:49:20;;;;;;;33.58;18.50;;;9.80;98.40;;;8.00;100.00;101503.84;5028286;28;20052;-83
2021/11/15 03:51:47;;;;;;;32.05;18.48;;;9.90;98.50;;;8.04;100.00;101502.53;5029103;28;20516;-83
2021/11/15 03:54:14;;;;;;;34.47;20.02;;;9.80;98.00;;;8.06;100.00;101508.69;5028969;28;20107;-83
2021/11/15 03:56:42;;;;;;;35.78;19.45;;;9.80;98.10;;;8.05;100.00;101503.41;5029017;28;20072;-83
2021/11/15 03:59:11;;;;;;;34.00;18.52;;;9.80;97.80;;;8.01;100.00;101511.84;5026734;28;20053;-83
2021/11/15 04:01:39;;;;;;;31.45;18.02;;;9.80;98.30;;;8.06;100.00;101515.97;5028980;28;20144;-83
2021/11/15 04:04:14;;;;;;;33.78;19.13;;;9.70;98.10;;;8.06;100.00;101514.09;5028324;28;20040;-83
2021/11/15 04:06:48;;;;;;;30.85;17.58;;;9.70;98.20;;;8.08;100.00;101514.81;5028911;28;20041;-83
2021/11/15 04:09:16;;;;;;;36.60;18.85;;;9.70;98.40;;;8.06;100.00;101519.53;5027879;28;20037;-83
2021/11/15 04:11:44;;;;;;;31.85;18.38;;;9.70;98.20;;;8.01;100.00;101517.25;5028829;28;20071;-82
2021/11/15 04:14:15;;;;;;;38.40;19.42;;;9.70;98.70;;;8.01;100.00;101511.84;5028708;28;20068;-83
2021/11/15 04:16:45;;;;;;;34.30;18.00;;;9.60;98.40;;;8.04;100.00;101513.38;5028808;28;20046;-83
2021/11/15 04:19:17;;;;;;;35.75;18.08;;;9.60;98.30;;;8.00;100.00;101514.69;5027831;28;20041;-83
2021/11/15 04:21:45;;;;;;;33.25;18.77;;;9.50;98.50;;;8.02;100.00;101509.97;5028734;28;20128;-83
2021/11/15 04:24:12;;;;;;;35.88;19.02;;;9.60;99.00;;;7.99;100.00;101507.53;5028446;28;20577;-83
2021/11/15 04:26:40;;;;;;;34.38;18.73;;;9.60;98.80;;;8.01;100.00;101505.53;5028532;28;20537;-83
2021/11/15 04:29:07;;;;;;;34.15;18.20;;;9.70;98.80;;;8.01;100.00;101500.13;5026670;28;20049;-83
2021/11/15 04:31:34;;;;;;;36.90;19.83;;;9.70;98.70;;;8.00;100.00;101501.13;5028666;28;20037;-83
2021/11/15 04:34:02;;;;;;;33.60;19.05;;;9.70;98.50;;;8.03;100.00;101498.13;5027878;28;20120;-83
2021/11/15 04:36:30;;;;;;;38.13;20.17;;;9.80;98.50;;;8.00;100.00;101493.00;5028365;28;20506;-83
2021/11/15 04:38:57;;;;;;;36.83;20.00;;;9.70;98.50;;;8.01;100.00;101501.00;5027638;28;20135;-83
2021/11/15 04:41:25;;;;;;;36.58;20.08;;;9.70;98.20;;;8.06;100.00;101497.00;5028509;28;20045;-83
2021/11/15 04:43:52;;;;;;;37.80;19.40;;;9.70;98.60;;;8.03;100.00;101501.69;5028735;28;20136;-83
2021/11/15 04:46:19;;;;;;;35.78;19.48;;;9.70;98.60;;;8.03;100.00;101498.13;5028458;28;20125;-83
2021/11/15 04:48:46;;;;;;;35.35;19.33;;;9.70;98.40;;;7.95;100.00;101497.97;5027373;28;20136;-83
2021/11/15 04:51:14;;;;;;;36.70;18.75;;;9.70;98.50;;;7.92;100.00;101501.84;5028388;28;20634;-83
2021/11/15 04:53:42;;;;;;;34.13;18.42;;;9.70;98.50;;;7.93;100.00;101505.41;5028184;28;20405;-83
2021/11/15 04:56:10;;;;;;;32.35;17.90;;;9.60;98.30;;;7.95;100.00;101506.13;5026970;28;20178;-83
2021/11/15 04:58:38;;;;;;;31.50;18.20;;;9.60;98.20;;;7.94;100.00;101501.69;5027340;28;20045;-82
2021/11/15 05:01:07;;;;;;;34.13;18.17;;;9.50;98.20;;;7.96;100.00;101492.41;5028230;28;20084;-83
2021/11/15 05:03:35;;;;;;;32.42;18.50;;;9.50;98.30;;;7.97;100.00;101498.69;5028468;28;20045;-85
2021/11/15 05:06:04;;;;;;;34.03;18.80;;;9.60;98.60;;;7.94;100.00;101490.84;5028158;28;20076;-85
2021/11/15 05:08:31;;;;;;;36.92;18.85;;;9.50;98.20;;;7.95;100.00;101497.97;5027309;28;20044;-85
2021/11/15 05:11:00;;;;;;;33.90;18.45;;;9.50;98.30;;;7.96;100.00;101508.69;5028225;28;20099;-85
2021/11/15 05:13:27;;;;;;;35.80;19.55;;;9.50;98.60;;;7.94;100.00;101494.44;5028102;28;20061;-85
2021/11/15 05:15:54;;;;;;;33.47;19.08;;;9.40;98.30;;;7.94;100.00;101493.53;5044258;28;20119;-87
2021/11/15 05:18:21;;;;;;;36.45;20.00;;;9.50;98.80;;;7.91;100.00;101488.44;5026109;28;20045;-86
2021/11/15 05:20:49;;;;;;;34.55;18.58;;;9.40;98.10;;;7.91;100.00;101489.28;5012338;28;20125;-86
2021/11/15 05:23:16;;;;;;;33.75;19.00;;;9.40;98.60;;;7.90;100.00;101490.28;5027309;28;20046;-86
2021/11/15 05:25:44;;;;;;;32.85;18.98;;;9.40;98.50;;;7.88;100.00;101488.72;5032060;28;20095;-85
2021/11/15 05:28:14;;;;;;;35.70;18.40;;;9.50;98.50;;;7.85;100.00;101489.00;5046305;28;20045;-86
2021/11/15 05:30:41;;;;;;;36.38;19.88;;;9.50;98.40;;;7.83;100.00;101491.84;5031966;28;20469;-86
2021/11/15 05:33:08;;;;;;;34.58;18.08;;;9.60;98.40;;;7.85;100.00;101489.84;5030397;28;20139;-85
2021/11/15 05:35:36;;;;;;;35.40;19.17;;;9.60;97.90;;;7.82;100.00;101492.84;5032162;28;20128;-86
2021/11/15 05:38:04;;;;;;;36.10;18.63;;;9.60;98.00;;;7.81;100.00;101494.69;5030832;28;20049;-89
2021/11/15 05:40:31;;;;;;;34.85;18.27;;;9.50;97.60;;;7.85;100.00;101489.00;5031888;28;20446;-87
2021/11/15 05:42:59;;;;;;;31.88;17.70;;;9.60;98.00;;;7.86;100.00;101496.13;5031727;28;20231;-89
2021/11/15 05:45:28;;;;;;;32.28;18.70;;;9.60;97.90;;;7.86;99.67;101496.13;5029637;28;20092;-83
2021/11/15 05:47:56;;;;;;;37.10;19.38;;;9.50;97.50;;;7.82;99.99;101485.59;5030610;28;20053;-87
2021/11/15 05:50:26;;;;;;;34.92;19.23;;;9.50;97.90;;;7.81;99.75;101492.00;5030911;28;20537;-82
2021/11/15 05:52:54;;;;;;;34.92;18.70;;;9.40;97.60;;;7.79;100.00;101490.44;5031405;28;20502;-83
2021/11/15 05:55:23;;;;;;;35.40;18.42;;;9.40;98.00;;;7.81;100.00;101489.28;5031169;28;20042;-82
2021/11/15 05:57:52;;;;;;;35.03;19.55;;;9.40;98.00;;;7.77;100.00;101493.28;5030443;28;20080;-82
2021/11/15 06:00:23;;;;;;;34.83;19.00;;;9.40;97.90;;;7.80;100.00;101486.72;5031076;28;20513;-82
2021/11/15 06:02:53;;;;;;;33.15;18.42;;;9.40;97.70;;;7.80;100.00;101489.41;5031389;28;20047;-81
2021/11/15 06:05:20;;;;;;;35.03;19.55;;;9.50;98.30;;;7.76;100.00;101480.72;5031257;28;20134;-83
2021/11/15 06:07:47;;;;;;;34.53;19.27;;;9.40;97.80;;;7.73;100.00;101481.03;5030247;28;20433;-83
2021/11/15 06:10:15;;;;;;;37.63;20.42;;;9.30;98.00;;;7.75;100.00;101488.97;5031039;28;20129;-82
2021/11/15 06:12:43;;;;;;;36.90;19.55;;;9.40;98.20;;;7.74;100.00;101487.28;5031091;28;20041;-83
2021/11/15 06:15:13;;;;;;;35.90;19.08;;;9.40;98.40;;;7.70;100.00;101496.69;5026096;28;20116;-82
2021/11/15 06:17:41;;;;;;;36.55;19.80;;;9.50;98.40;;;7.68;100.00;101504.13;5019552;28;20068;-83
2021/11/15 06:20:13;;;;;;;34.63;19.10;;;9.40;97.90;;;7.64;100.00;101498.13;5029081;28;20594;-84
2021/11/15 06:22:40;;;;;;;33.20;18.65;;;9.30;98.20;;;7.68;100.00;101504.97;5030871;28;20120;-83
2021/11/15 06:25:10;;;;;;;33.95;18.67;;;9.30;98.10;;;7.63;100.00;101497.28;5030828;28;20033;-83
2021/11/15 06:27:39;;;;;;;34.50;18.80;;;9.20;98.00;;;7.63;100.00;101501.81;5028692;28;20042;-83
2021/11/15 06:30:10;;;;;;;37.05;19.55;;;9.30;98.60;;;7.62;100.00;101502.81;5030736;28;20052;-83
2021/11/15 06:32:37;;;;;;;34.03;18.45;;;9.30;98.30;;;7.64;100.00;101500.84;5030680;28;20099;-82
2021/11/15 06:35:06;;;;;;;35.60;19.05;;;9.30;98.30;;;7.63;100.00;101494.56;5030402;28;20056;-83
2021/11/15 06:37:35;;;;;;;34.65;17.75;;;9.30;97.80;;;7.58;100.00;101510.38;5029674;28;20127;-83
2021/11/15 06:40:06;;;;;;;35.40;19.20;;;9.20;98.10;;;7.57;100.00;101502.38;5030021;28;20494;-83
2021/11/15 06:42:34;;;;;;;41.47;19.53;;;9.20;98.10;;;7.55;100.00;101505.22;5030942;28;20038;-83
2021/11/15 06:45:01;;;;;;;37.38;19.50;;;9.20;98.60;;;7.52;100.00;101502.81;5028919;28;20506;-83
2021/11/15 06:47:33;;;;;;;36.22;18.63;;;9.20;98.20;;;7.55;100.00;101501.66;5028121;28;20187;-83
2021/11/15 06:50:01;;;;;;;38.55;19.80;;;9.10;98.60;;;7.58;100.00;101506.81;5029716;28;20053;-83
2021/11/15 06:52:29;;;;;;;38.33;18.73;;;9.10;98.70;;;7.55;100.00;101509.81;5029929;28;20046;-83
2021/11/15 06:54:58;;;;;;;34.90;18.10;;;9.10;98.90;;;7.51;100.00;101521.91;5030101;28;20045;-84
2021/11/15 06:57:28;;;;;;;35.38;18.65;;;9.10;99.00;;;7.50;100.00;101521.06;5029177;28;20453;-83
2021/11/15 06:59:56;;;;;;;37.10;18.92;;;9.20;98.90;;;7.51;100.00;101521.91;5027514;28;20772;-83
2021/11/15 07:02:23;;;;;;;37.80;18.08;;;9.20;98.80;;;7.52;100.00;101519.06;5030128;28;20039;-83
2021/11/15 07:04:51;;;;;;;36.78;19.08;;;9.30;98.90;;;7.56;100.00;101533.19;5029976;28;20126;-83
2021/11/15 07:07:18;;;;;;;34.03;17.77;;;9.30;98.80;;;7.55;100.00;101526.06;5044492;28;20147;-84
2021/11/15 07:09:47;;;;;;;35.55;18.48;;;9.30;98.60;;;7.61;100.00;101528.19;5025765;28;20076;-83
2021/11/15 07:12:16;;;;;;;35.53;18.02;;;9.30;98.30;;;7.63;100.00;101529.78;5024941;28;20041;-83
2021/11/15 07:14:44;;;;;;;34.88;16.95;;;9.30;98.20;;;7.57;100.00;101530.31;5020870;28;20033;-83
2021/11/15 07:17:11;;;;;;;32.55;16.05;;;9.30;98.60;;;7.53;100.00;101525.34;5010403;28;20048;-83
2021/11/15 07:19:39;;;;;;;36.22;16.98;;;9.20;98.10;;;7.56;100.00;101533.19;5026587;28;20037;-83
2021/11/15 07:22:06;;;;;;;34.55;16.98;;;9.20;98.50;;;7.58;100.00;101533.91;5028202;28;20124;-83
2021/11/15 07:24:33;;;;;;;36.60;16.95;;;9.20;98.60;;;7.59;100.00;101527.47;5024190;28;20390;-82
2021/11/15 07:27:01;;;;;;;32.63;16.92;;;9.10;98.40;;;7.57;100.00;101532.19;5027851;28;20042;-84
2021/11/15 07:29:29;;;;;;;34.17;16.88;;;9.10;98.50;;;7.53;100.00;101539.72;5025853;28;20044;-83
2021/11/15 07:31:57;;;;;;;33.60;16.30;;;9.00;98.70;;;7.52;100.00;101539.88;5027864;28;20073;-83
2021/11/15 07:34:27;;;;;;;33.20;16.27;;;9.00;98.50;;;7.51;100.00;101540.88;5027689;28;20120;-84
2021/11/15 07:36:55;;;;;;;31.77;16.10;;;9.00;98.90;;;7.47;100.00;101544.84;5027684;28;20047;-83
2021/11/15 07:39:24;;;;;;;33.08;16.20;;;9.00;98.50;;;7.46;100.00;101535.00;5026140;28;20124;-83
2021/11/15 07:41:53;;;;;;;30.35;16.55;;;9.10;98.80;;;7.47;100.00;101544.84;5041799;28;20073;-83
2021/11/15 07:44:20;;;;;;;36.47;17.10;;;9.10;98.50;;;7.47;100.00;101551.13;5025389;28;20068;-83
2021/11/15 07:46:49;;;;;;;30.52;16.08;;;9.10;98.60;;;7.44;100.00;101552.28;5026249;28;20041;-83
2021/11/15 07:49:17;;;;;;;31.10;15.13;;;9.10;98.30;;;7.43;100.00;101552.41;5015572;28;20049;-83
2021/11/15 07:51:44;;;;;;;33.08;17.20;;;9.20;98.10;;;7.42;100.00;101553.38;5010440;28;20045;-83
2021/11/15 07:54:11;;;;;;;30.27;16.88;;;9.20;98.10;;;7.46;100.00;101556.69;5013334;28;20067;-84
2021/11/15 07:56:39;;;;;;;41.08;17.38;;;9.10;98.20;;;7.44;100.00;101552.28;5020793;28;20037;-84
2021/11/15 07:59:06;;;;;;;32.58;17.52;;;9.20;98.20;;;7.41;100.00;101557.09;5025381;28;20124;-83
2021/11/15 08:01:34;;;;;;;33.88;18.00;;;9.10;98.30;;;7.38;100.00;101551.94;5011152;28;20096;-83
2021/11/15 08:04:03;;;;;;;36.17;17.50;;;9.10;98.10;;;7.42;100.00;101538.00;5010578;28;20055;-83
2021/11/15 08:06:30;;;;;;;33.13;17.17;;;9.10;98.50;;;7.42;100.00;101547.97;5027416;28;20047;-83
2021/11/15 08:08:57;;;;;;;35.20;17.17;;;9.10;98.70;;;7.46;100.00;101549.41;5026583;28;20132;-83
2021/11/15 08:11:29;;;;;;;30.98;15.48;;;9.10;98.50;;;7.47;100.00;101550.28;5026996;28;20053;-83
2021/11/15 08:13:57;;;;;;;34.42;16.63;;;9.10;98.60;;;7.46;100.00;101546.69;5022413;28;20058;-84
2021/11/15 08:16:24;;;;;;;37.83;18.38;;;9.20;98.60;;;7.48;100.00;101557.38;5025964;28;20096;-83
2021/11/15 08:18:52;;;;;;;39.00;17.38;;;9.20;98.20;;;7.51;100.00;101549.00;5024987;28;20099;-83
2021/11/15 08:21:23;;;;;;;36.85;18.17;;;9.10;98.60;;;7.49;100.00;101553.69;5017597;28;20482;-83
2021/11/15 08:23:51;;;;;;;;;;;9.10;98.80;;;7.49;100.00;101548.28;5009722;28;20467;-84
2021/11/15 08:26:39;;;;;;;34.95;18.23;;;9.10;98.70;;;7.50;100.00;101556.28;5008280;28;19957;-83
2021/11/15 08:29:11;;;;;;;37.55;18.70;;;9.20;98.80;;;7.47;100.00;101555.69;5021914;28;20050;-83
2021/11/15 08:31:41;;;;;;;42.60;20.48;;;9.20;98.70;;;7.49;100.00;101548.28;5014971;28;20070;-83
2021/11/15 08:34:10;;;;;;;40.17;20.50;;;9.20;98.60;;;7.49;100.00;101542.88;5007066;28;20038;-83
2021/11/15 08:36:40;;;;;;;44.65;21.48;;;9.20;98.80;;;7.48;100.00;101535.72;5010884;28;20065;-83
2021/11/15 08:39:10;;;;;;;46.67;21.85;;;9.10;98.80;;;7.50;100.00;101547.28;5026696;28;20046;-83
2021/11/15 08:41:41;;;;;;;44.05;21.48;;;9.20;99.10;;;7.48;100.00;101541.13;5026964;28;20045;-83
2021/11/15 08:44:10;;;;;;;46.73;23.13;;;9.20;99.10;;;7.47;100.00;101539.44;5028422;28;20053;-82
2021/11/15 08:46:39;;;;;;;45.80;22.70;;;9.20;98.80;;;7.49;100.00;101540.16;5027842;28;20045;-83
2021/11/15 08:49:10;;;;;;;51.75;24.85;;;9.30;99.10;;;7.54;100.00;101540.56;5026172;28;20107;-83
2021/11/15 08:51:41;;;;;;;45.60;24.80;;;9.30;99.00;;;7.57;100.00;101545.72;5027790;28;20107;-83
2021/11/15 08:54:14;;;;;;;49.35;25.25;;;9.30;98.80;;;7.58;100.00;101531.19;5028194;28;20041;-83
2021/11/15 08:56:42;;;;;;;49.33;26.30;;;9.30;98.90;;;7.59;100.00;101543.72;5028122;28;20045;-83
2021/11/15 08:59:09;;;;;;;47.70;25.45;;;9.30;99.10;;;7.57;100.00;101529.47;5026628;28;20091;-84
2021/11/15 09:01:36;;;;;;;47.40;25.67;;;9.20;98.70;;;7.55;100.00;101529.59;5028159;28;20095;-83
2021/11/15 09:04:05;;;;;;;48.08;25.80;;;9.20;99.30;;;7.55;100.00;101534.19;5027662;28;20140;-83
2021/11/15 09:06:34;;;;;;;47.95;24.58;;;9.10;99.50;;;7.50;100.00;101533.72;5027926;28;20037;-83
2021/11/15 09:09:07;;;;;;;43.95;23.17;;;9.10;99.70;;;7.50;100.00;101528.31;5025113;28;20040;-83
2021/11/15 09:11:35;;;;;;;46.35;23.35;;;9.10;99.80;;;7.47;100.00;101528.59;5028228;28;20513;-83
2021/11/15 09:14:02;;;;;;;41.75;21.40;;;9.10;99.80;;;7.48;100.00;101531.16;5027982;28;20041;-84
2021/11/15 09:16:32;;;;;;;43.35;21.63;;;9.10;99.90;;;7.48;100.00;101535.72;5028041;28;20116;-88
2021/11/15 09:19:00;;;;;;;40.83;20.17;;;9.20;99.90;;;7.50;100.00;101545.44;5117567;23;20045;-86
2021/11/15 09:21:28;;;;;;;35.60;18.83;;;9.20;99.30;;;7.47;100.00;101550.28;5011773;28;20068;-87
2021/11/15 09:23:55;;;;;;;39.17;18.45;;;9.00;99.20;;;7.45;100.00;101550.41;5027809;28;20486;-83
2021/11/15 09:26:26;;;;;;;33.85;17.50;;;9.00;99.70;;;7.47;100.00;101558.41;5028145;28;20053;-86
2021/11/15 09:28:55;;;;;;;34.83;19.25;;;9.00;99.90;;;7.46;100.00;101548.56;5016264;28;20049;-88
2021/11/15 09:31:23;;;;;;;34.88;17.92;;;9.10;99.90;;;7.49;100.00;101546.44;5007955;28;20096;-88
2021/11/15 09:33:57;;;;;;;31.88;16.67;;;9.10;99.90;;;7.52;100.00;101550.69;5008098;28;20117;-88
2021/11/15 09:36:25;;;;;;;33.15;15.63;;;9.20;99.60;;;7.50;100.00;101549.97;5006965;28;20540;-89
2021/11/15 09:38:56;;;;;;;29.65;14.95;;;9.20;99.60;;;7.46;100.00;101543.13;5017522;28;20037;-87
2021/11/15 09:41:26;;;;;;;27.85;14.85;;;9.20;99.20;;;7.49;100.00;101543.72;5027994;28;20057;-89
2021/11/15 09:43:54;;;;;;;29.80;15.50;;;9.20;99.50;;;7.47;100.00;101544.84;5027988;28;20060;-89
2021/11/15 09:46:25;;;;;;;33.28;15.95;;;9.20;99.00;;;7.48;100.00;101539.28;5019349;28;20061;-88
2021/11/15 09:49:00;;;;;;;31.17;14.98;;;9.20;99.30;;;7.50;100.00;101544.56;5013422;28;20042;-91
2021/11/15 09:51:27;;;;;;;27.50;14.25;;;9.30;99.40;;;7.47;100.00;101540.28;5012049;28;20049;-87
2021/11/15 09:53:56;;;;;;;28.00;13.98;;;9.30;99.00;;;7.49;100.00;101542.88;5005521;28;20050;-87
2021/11/15 09:56:25;;;;;;;29.58;14.00;;;9.30;98.40;;;7.49;100.00;101545.56;5007901;28;20866;-87
2021/11/15 09:58:52;;;;;;;30.30;14.73;;;9.20;98.70;;;7.50;100.00;101545.44;5009677;28;20096;-87
2021/11/15 10:01:21;;;;;;;28.77;14.10;;;9.20;98.50;;;7.56;100.00;101539.47;5000450;28;20108;-88
2021/11/15 10:03:48;;;;;;;27.38;13.23;;;9.20;98.50;;;7.55;100.00;101542.31;5009579;28;20759;-89
2021/11/15 10:06:16;;;;;;;28.10;14.48;;;9.30;98.90;;;7.51;100.00;101539.00;5009056;28;20572;-90
2021/11/15 10:08:48;;;;;;;27.13;14.25;;;9.20;98.00;;;7.55;100.00;101545.00;5009765;28;20652;-89
2021/11/15 10:11:17;;;;;;;26.92;14.13;;;9.20;98.70;;;7.53;100.00;101533.47;4992177;28;20042;-89